Time;durP1;ratioP1;P1;durP2;ratioP2;P2;SDS_P1;SDS_P2;PMS_P1;PMS_P2;Temp;Humidity;BMP_temperature;BMP_pressure;BME280_temperature;BME280_humidity;BME280_pressure;Samples;Min_cycle;Max_cycle;Signal;HPM_P1;HPM_P2
2023/05/20 00:00:59;;;;;;;16.60;15.67;;;13.40;1.00;;;;;;4883441;29;21139;-84
2023/05/20 00:03:34;;;;;;;16.13;15.33;;;13.40;8.10;;;;;;4883499;29;20540;-84
2023/05/20 00:06:12;;;;;;;16.17;15.40;;;13.40;1.00;;;;;;4883158;29;20452;-83
2023/05/20 00:08:45;;;;;;;16.47;15.77;;;13.40;24.00;;;;;;4884456;29;20478;-83
2023/05/20 00:11:21;;;;;;;16.30;15.40;;;13.40;1.00;;;;;;4881143;29;20490;-84
2023/05/20 00:13:57;;;;;;;16.57;15.93;;;13.40;1.00;;;;;;4885004;29;20451;-84
2023/05/20 00:16:42;;;;;;;15.57;14.87;;;13.50;1.00;;;;;;4883279;29;20907;-83
2023/05/20 00:19:22;;;;;;;16.37;15.77;;;13.40;1.00;;;;;;4883700;29;20480;-85
2023/05/20 00:22:04;;;;;;;16.53;15.77;;;13.50;1.00;;;;;;4882922;29;20467;-83
2023/05/20 00:24:39;;;;;;;15.77;15.07;;;13.40;1.00;;;;;;4883989;29;20514;-84
2023/05/20 00:27:17;;;;;;;15.80;15.13;;;13.50;1.00;;;;;;4867516;29;20486;-84
2023/05/20 00:29:50;;;;;;;15.50;14.90;;;13.50;20.50;;;;;;4883380;29;20526;-84
2023/05/20 00:32:25;;;;;;;15.33;14.73;;;13.50;13.10;;;;;;4882133;29;20483;-83
2023/05/20 00:34:59;;;;;;;15.70;14.90;;;13.50;10.60;;;;;;4881082;29;20532;-84
2023/05/20 00:37:32;;;;;;;14.83;14.20;;;13.50;35.70;;;;;;4883394;29;20497;-84
2023/05/20 00:40:03;;;;;;;15.03;14.40;;;13.40;1.00;;;;;;4882902;29;20464;-84
2023/05/20 00:42:52;;;;;;;16.30;15.10;;;13.50;1.00;;;;;;4884670;29;20458;-84
2023/05/20 00:45:36;;;;;;;15.37;14.80;;;13.60;70.10;;;;;;4881579;29;20453;-84
2023/05/20 00:48:17;;;;;;;15.30;14.60;;;13.50;55.10;;;;;;4885391;29;20511;-83
2023/05/20 00:50:51;;;;;;;15.53;14.83;;;13.50;5.40;;;;;;4882215;29;21053;-84
2023/05/20 00:53:31;;;;;;;15.73;15.10;;;13.50;23.90;;;;;;4882605;29;20500;-84
2023/05/20 00:56:00;;;;;;;15.77;14.97;;;13.60;81.30;;;;;;4883244;29;20539;-84
2023/05/20 00:58:36;;;;;;;15.90;15.20;;;13.60;86.90;;;;;;4865204;29;20497;-83
2023/05/20 01:01:25;;;;;;;16.20;15.60;;;13.50;99.90;;;;;;4878931;29;20558;-84
2023/05/20 01:04:07;;;;;;;15.37;14.70;;;13.50;99.90;;;;;;4883077;29;20992;-84
2023/05/20 01:06:42;;;;;;;16.20;15.50;;;13.50;99.90;;;;;;4881363;29;20516;-84
2023/05/20 01:09:20;;;;;;;15.77;15.10;;;13.50;99.90;;;;;;4883474;29;20473;-84
2023/05/20 01:11:57;;;;;;;16.10;15.50;;;13.50;99.90;;;;;;4880489;29;20484;-84
2023/05/20 01:14:32;;;;;;;17.17;16.27;;;13.50;99.90;;;;;;4880564;29;20470;-84
2023/05/20 01:17:09;;;;;;;15.73;15.07;;;13.60;99.90;;;;;;4881958;29;20585;-84
2023/05/20 01:19:44;;;;;;;16.20;15.60;;;13.60;99.90;;;;;;4883756;29;20559;-84
2023/05/20 01:22:32;;;;;;;15.63;15.03;;;13.50;99.90;;;;;;4882819;29;20852;-84
2023/05/20 01:25:11;;;;;;;15.80;15.07;;;13.50;99.90;;;;;;4878365;29;20463;-83
2023/05/20 01:27:47;;;;;;;15.20;14.50;;;13.60;99.90;;;;;;4884262;29;20482;-83
2023/05/20 01:30:18;;;;;;;15.07;14.47;;;13.60;99.90;;;;;;4882333;29;20835;-84
2023/05/20 01:33:05;;;;;;;15.40;14.70;;;13.60;99.90;;;;;;4880395;29;20493;-84
2023/05/20 01:36:05;;;;;;;15.07;14.23;;;13.60;99.90;;;;;;4866497;29;20968;-84
2023/05/20 01:38:51;;;;;;;15.90;14.90;;;13.60;99.90;;;;;;4864699;29;20897;-83
2023/05/20 01:41:33;;;;;;;14.80;14.20;;;13.50;99.90;;;;;;4884715;29;20470;-84
2023/05/20 01:44:14;;;;;;;15.00;14.40;;;13.60;99.90;;;;;;4883107;29;20473;-84
2023/05/20 01:46:59;;;;;;;15.60;14.90;;;13.60;99.90;;;;;;4882348;29;20477;-83
2023/05/20 01:49:31;;;;;;;15.23;14.57;;;13.60;99.90;;;;;;4866219;29;20464;-84
2023/05/20 01:52:06;;;;;;;16.07;15.20;;;13.60;99.90;;;;;;4881488;29;20494;-83
2023/05/20 01:54:38;;;;;;;15.63;14.73;;;13.60;99.90;;;;;;4881899;29;20456;-84
2023/05/20 01:57:42;;;;;;;14.93;14.30;;;13.60;99.90;;;;;;4883514;29;20461;-83
2023/05/20 02:00:18;;;;;;;15.00;14.50;;;13.60;99.90;;;;;;4883114;29;20467;-83
2023/05/20 02:02:51;;;;;;;15.80;15.00;;;13.60;99.90;;;;;;4883418;29;20459;-84
2023/05/20 02:05:38;;;;;;;15.70;15.03;;;13.50;99.90;;;;;;4884089;29;20969;-85
2023/05/20 02:08:07;;;;;;;15.73;15.13;;;13.50;99.90;;;;;;4881102;29;20591;-85
2023/05/20 02:10:44;;;;;;;24.00;21.63;;;13.60;99.90;;;;;;4882038;29;20545;-84
2023/05/20 02:13:29;;;;;;;20.50;19.30;;;13.50;99.90;;;;;;4883062;29;20490;-83
2023/05/20 02:16:27;;;;;;;17.67;16.87;;;13.60;99.90;;;;;;4882560;29;20971;-83
2023/05/20 02:18:57;;;;;;;16.90;16.10;;;13.60;99.90;;;;;;4883675;29;20457;-84
2023/05/20 02:21:42;;;;;;;17.57;16.87;;;13.60;99.90;;;;;;4880604;29;20460;-83
2023/05/20 02:24:25;;;;;;;16.90;16.10;;;13.60;99.90;;;;;;4879629;29;20450;-84
2023/05/20 02:27:07;;;;;;;16.90;16.20;;;13.60;99.90;;;;;;4882089;29;20483;-83
2023/05/20 02:29:39;;;;;;;16.67;16.07;;;13.60;99.90;;;;;;4881984;29;20495;-84
2023/05/20 02:32:26;;;;;;;16.17;15.50;;;13.60;99.90;;;;;;4879809;29;20463;-83
2023/05/20 02:35:05;;;;;;;16.00;15.30;;;13.50;99.90;;;;;;4879761;29;20466;-84
2023/05/20 02:37:34;;;;;;;17.77;16.83;;;13.60;99.90;;;;;;4879775;29;20482;-83
2023/05/20 02:40:14;;;;;;;16.77;16.10;;;13.50;99.90;;;;;;4880673;29;20476;-84
2023/05/20 02:42:53;;;;;;;16.20;15.60;;;13.50;99.90;;;;;;4883417;29;20473;-83
2023/05/20 02:45:26;;;;;;;16.90;16.20;;;13.60;99.90;;;;;;4879275;29;20972;-84
2023/05/20 02:48:08;;;;;;;17.50;16.60;;;13.50;99.90;;;;;;4881152;29;20485;-84
2023/05/20 02:50:44;;;;;;;16.73;15.93;;;13.60;99.90;;;;;;4878444;29;20473;-84
2023/05/20 02:53:12;;;;;;;16.97;16.17;;;13.60;99.90;;;;;;4880067;29;20483;-85
2023/05/20 02:55:49;;;;;;;16.60;16.00;;;13.50;99.90;;;;;;4881631;29;20963;-84
2023/05/20 02:58:29;;;;;;;17.17;16.27;;;13.60;99.90;;;;;;4869288;29;20490;-83
2023/05/20 03:01:00;;;;;;;16.60;15.90;;;13.50;99.90;;;;;;4886220;29;20452;-83
2023/05/20 03:03:41;;;;;;;17.40;16.43;;;13.50;99.90;;;;;;4883631;29;20458;-84
2023/05/20 03:06:43;;;;;;;17.10;16.40;;;13.50;99.90;;;;;;4887287;29;20458;-83
2023/05/20 03:09:14;;;;;;;16.20;15.60;;;13.50;99.90;;;;;;4885323;29;20510;-83
2023/05/20 03:11:46;;;;;;;16.50;15.90;;;13.50;99.90;;;;;;4884621;29;20474;-83
2023/05/20 03:14:24;;;;;;;16.63;15.80;;;13.50;99.90;;;;;;4885747;29;20644;-83
2023/05/20 03:17:10;;;;;;;16.53;15.80;;;13.50;99.90;;;;;;4884724;29;20487;-84
2023/05/20 03:19:53;;;;;;;17.00;16.30;;;13.50;99.90;;;;;;4869236;29;20475;-84
2023/05/20 03:22:28;;;;;;;17.13;16.53;;;13.50;99.90;;;;;;4884419;29;20466;-83
2023/05/20 03:24:57;;;;;;;16.80;16.07;;;13.40;99.90;;;;;;4884251;29;20652;-84
2023/05/20 03:27:36;;;;;;;17.00;16.20;;;13.50;99.90;;;;;;4883925;29;20944;-84
2023/05/20 03:30:11;;;;;;;16.80;16.07;;;13.40;99.90;;;;;;4884692;29;21103;-84
2023/05/20 03:32:45;;;;;;;16.67;15.87;;;13.40;99.90;;;;;;4879714;29;20839;-84
2023/05/20 03:35:17;;;;;;;16.57;15.97;;;13.40;1.00;;;;;;4882685;29;20518;-84
2023/05/20 03:37:50;;;;;;;16.77;16.00;;;13.40;1.00;;;;;;4883901;29;20555;-84
2023/05/20 03:40:25;;;;;;;17.10;16.40;;;13.40;1.00;;;;;;4885783;29;20472;-83
2023/05/20 03:43:07;;;;;;;15.87;15.17;;;13.40;1.00;;;;;;4883814;29;20589;-83
2023/05/20 03:45:43;;;;;;;16.60;15.87;;;13.40;1.00;;;;;;4885514;29;20537;-83
2023/05/20 03:48:16;;;;;;;16.97;16.27;;;13.40;1.00;;;;;;4882569;29;20513;-84
2023/05/20 03:50:56;;;;;;;16.80;16.10;;;13.40;1.00;;;;;;4865814;29;20462;-83
2023/05/20 03:53:37;;;;;;;16.40;15.70;;;13.40;1.00;;;;;;4886426;29;20478;-84
2023/05/20 03:56:15;;;;;;;16.50;15.70;;;13.30;1.00;;;;;;4883931;29;21063;-83
2023/05/20 03:58:48;;;;;;;16.37;15.67;;;13.40;1.00;;;;;;4882641;29;20460;-84
2023/05/20 04:01:36;;;;;;;16.40;15.70;;;13.40;1.00;;;;;;4864641;29;20498;-84
2023/05/20 04:04:05;;;;;;;16.77;16.07;;;13.30;1.00;;;;;;4881502;29;20447;-84
2023/05/20 04:07:06;;;;;;;16.97;16.27;;;13.30;1.00;;;;;;4880001;29;21013;-84
2023/05/20 04:12:46;;;;;;;16.87;16.03;;;13.30;1.00;;;;;;4883878;29;20462;-84
2023/05/20 04:15:28;;;;;;;17.30;16.60;;;13.30;99.90;;;;;;4882021;29;20486;-84
2023/05/20 04:18:16;;;;;;;17.30;16.50;;;13.40;57.20;;;;;;4882627;29;20484;-83
2023/05/20 04:21:04;;;;;;;16.90;16.20;;;13.40;99.90;;;;;;4883337;29;20466;-84
2023/05/20 04:23:39;;;;;;;17.43;16.80;;;13.40;99.90;;;;;;4883573;29;20994;-83
2023/05/20 04:26:21;;;;;;;17.40;16.70;;;13.40;99.90;;;;;;4884009;29;20503;-84
2023/05/20 04:29:03;;;;;;;17.33;16.63;;;13.50;99.90;;;;;;4879314;29;21045;-84
2023/05/20 04:31:57;;;;;;;17.00;16.30;;;13.50;99.90;;;;;;4883715;29;20599;-83
2023/05/20 04:34:45;;;;;;;17.40;16.70;;;13.50;99.90;;;;;;4882525;29;20517;-83
2023/05/20 04:37:39;;;;;;;18.03;16.80;;;13.50;99.90;;;;;;4884253;29;20473;-84
2023/05/20 04:40:49;;;;;;;17.17;16.47;;;13.50;99.90;;;;;;4882329;29;20472;-83
2023/05/20 04:44:05;;;;;;;18.23;17.30;;;13.50;98.20;;;;;;4886653;29;20458;-83
2023/05/20 04:46:38;;;;;;;17.23;16.63;;;13.60;99.90;;;;;;4881306;29;20481;-83
2023/05/20 04:49:17;;;;;;;18.07;17.03;;;13.60;99.90;;;;;;4864087;29;21027;-84
2023/05/20 04:52:08;;;;;;;17.20;16.53;;;13.60;99.90;;;;;;4878736;29;20488;-83
2023/05/20 04:54:39;;;;;;;17.53;16.83;;;13.70;99.90;;;;;;4882162;29;20524;-85
2023/05/20 04:57:08;;;;;;;16.53;15.93;;;13.70;99.90;;;;;;4882159;29;20754;-83
2023/05/20 04:59:37;;;;;;;17.23;16.47;;;13.70;99.90;;;;;;4886319;29;20836;-82
2023/05/20 05:02:05;;;;;;;18.50;17.70;;;13.70;99.90;;;;;;4880491;29;20462;-82
2023/05/20 05:04:34;;;;;;;18.20;17.50;;;13.70;99.90;;;;;;4883653;29;20480;-83
2023/05/20 05:07:06;;;;;;;17.87;17.07;;;13.80;99.90;;;;;;4882112;29;20482;-83
2023/05/20 05:09:35;;;;;;;17.87;16.93;;;13.80;99.90;;;;;;4881755;29;20483;-83
2023/05/20 05:12:04;;;;;;;17.13;16.43;;;13.80;88.80;;;;;;4883505;29;20469;-84
2023/05/20 05:14:33;;;;;;;17.03;16.43;;;13.90;99.90;;;;;;4879398;29;20494;-83
2023/05/20 05:17:01;;;;;;;17.00;16.40;;;13.90;99.00;;;;;;4883337;29;20485;-83
2023/05/20 05:19:30;;;;;;;17.27;16.47;;;13.90;90.80;;;;;;4864453;29;20468;-83
2023/05/20 05:22:16;;;;;;;17.87;17.00;;;13.90;99.90;;;;;;4881586;29;20542;-83
2023/05/20 05:25:00;;;;;;;18.30;17.30;;;14.00;99.90;;;;;;4881934;29;20458;-84
2023/05/20 05:27:38;;;;;;;17.23;16.60;;;14.00;99.90;;;;;;4881570;29;20538;-84
2023/05/20 05:30:39;;;;;;;17.57;16.97;;;14.00;56.60;;;;;;4881246;29;20453;-83
2023/05/20 05:33:25;;;;;;;17.63;16.83;;;14.00;24.10;;;;;;4881449;29;20454;-84
2023/05/20 05:36:05;;;;;;;17.73;16.83;;;14.10;3.50;;;;;;4882248;29;20485;-83
2023/05/20 05:38:47;;;;;;;18.53;17.47;;;14.10;73.20;;;;;;4880930;29;20481;-83
2023/05/20 05:41:30;;;;;;;18.53;17.83;;;14.10;15.00;;;;;;4882332;29;20467;-84
2023/05/20 05:44:33;;;;;;;17.67;16.97;;;14.20;10.30;;;;;;4865842;29;20459;-83
2023/05/20 05:47:09;;;;;;;18.70;17.83;;;14.20;1.00;;;;;;4882821;29;20479;-84
2023/05/20 05:49:51;;;;;;;18.13;17.33;;;14.30;1.00;;;;;;4879171;29;20517;-83
2023/05/20 05:52:35;;;;;;;18.30;17.60;;;14.30;99.90;;;;;;4882957;29;20483;-83
2023/05/20 05:55:24;;;;;;;18.83;17.97;;;14.40;1.00;;;;;;4866307;29;20504;-84
2023/05/20 05:58:13;;;;;;;18.70;18.07;;;14.40;1.00;;;;;;4880838;29;20485;-84
2023/05/20 06:01:16;;;;;;;18.70;18.00;;;14.50;1.00;;;;;;4867812;29;20483;-84
2023/05/20 06:06:48;;;;;;;18.83;18.03;;;14.60;1.00;;;;;;4885506;29;20487;-84
2023/05/20 06:09:20;;;;;;;19.77;18.77;;;14.70;1.00;;;;;;4881447;29;20466;-84
2023/05/20 06:11:56;;;;;;;19.00;18.20;;;14.70;1.00;;;;;;4883373;29;20485;-83
2023/05/20 06:14:40;;;;;;;18.33;17.63;;;14.70;1.00;;;;;;4882133;29;20486;-84
2023/05/20 06:17:31;;;;;;;19.47;18.67;;;14.80;1.00;;;;;;4881526;29;20483;-84
2023/05/20 06:20:24;;;;;;;19.40;18.60;;;14.80;1.00;;;;;;4879051;29;20474;-83
2023/05/20 06:23:17;;;;;;;;;;;;;;;;;;;;;
2023/05/20 06:26:06;;;;;;;19.00;18.20;;;14.80;1.00;;;;;;4879452;29;20964;-84
2023/05/20 06:29:14;;;;;;;19.60;18.60;;;14.90;1.00;;;;;;4882665;29;20980;-83
2023/05/20 06:32:23;;;;;;;;;;;;;;;;;;;;;
2023/05/20 06:35:15;;;;;;;19.60;18.70;;;14.90;1.00;;;;;;4883637;29;20589;-84
2023/05/20 06:38:08;;;;;;;19.20;18.30;;;15.00;99.90;;;;;;4887089;29;21095;-84
2023/05/20 06:40:59;;;;;;;19.40;18.43;;;15.00;1.00;;;;;;4871124;29;20585;-84
2023/05/20 06:53:12;;;;;;;20.17;18.93;;;15.20;1.00;;;;;;4875118;29;20469;-83
2023/05/20 06:56:16;;;;;;;19.10;18.30;;;15.30;99.90;;;;;;4887511;29;20482;-84
2023/05/20 06:58:47;;;;;;;19.17;18.37;;;15.30;99.90;;;;;;4881486;29;20499;-83
2023/05/20 07:01:15;;;;;;;19.67;18.70;;;15.40;99.90;;;;;;4884741;29;20668;-84
2023/05/20 07:03:46;;;;;;;19.87;19.00;;;15.50;99.90;;;;;;4885823;29;21040;-83
2023/05/20 07:06:15;;;;;;;20.80;19.80;;;15.50;99.90;;;;;;4883076;29;20987;-83
2023/05/20 07:08:43;;;;;;;20.80;19.80;;;15.60;99.90;;;;;;4882727;29;20486;-85
2023/05/20 07:11:11;;;;;;;20.10;19.20;;;15.60;99.90;;;;;;4884311;29;20552;-84
2023/05/20 07:13:40;;;;;;;19.77;18.87;;;15.60;99.90;;;;;;4882518;29;20471;-84
2023/05/20 07:16:08;;;;;;;19.40;18.70;;;15.70;99.90;;;;;;4886272;29;20493;-84
2023/05/20 07:18:36;;;;;;;20.83;19.80;;;15.70;99.90;;;;;;4884202;29;20479;-84
2023/05/20 07:21:05;;;;;;;20.77;19.77;;;15.70;99.90;;;;;;4886013;29;20494;-84
2023/05/20 07:23:33;;;;;;;22.17;21.00;;;15.70;99.90;;;;;;4883885;29;20550;-83
2023/05/20 07:26:02;;;;;;;20.87;19.87;;;15.80;99.90;;;;;;4883444;29;20444;-84
2023/05/20 07:28:30;;;;;;;20.97;19.80;;;15.80;99.90;;;;;;4877894;29;20488;-83
2023/05/20 07:30:59;;;;;;;20.60;19.60;;;15.80;99.90;;;;;;4881340;29;20879;-84
2023/05/20 07:34:07;;;;;;;20.90;20.00;;;15.90;99.90;;;;;;4881228;29;20569;-83
2023/05/20 07:37:03;;;;;;;21.40;20.40;;;15.90;99.90;;;;;;4882875;29;20498;-82
2023/05/20 07:40:22;;;;;;;21.13;20.03;;;15.90;99.90;;;;;;4882821;29;20544;-84
2023/05/20 07:43:02;;;;;;;20.40;19.60;;;15.90;99.90;;;;;;4881198;29;20476;-83
2023/05/20 07:46:18;;;;;;;21.60;20.60;;;16.00;99.90;;;;;;4883339;29;20459;-83
2023/05/20 07:49:10;;;;;;;20.43;19.53;;;16.10;99.90;;;;;;4886274;29;20843;-84
2023/05/20 07:51:59;;;;;;;22.00;20.83;;;16.10;99.90;;;;;;4883728;29;20916;-84
2023/05/20 07:54:55;;;;;;;20.60;19.80;;;16.10;99.90;;;;;;4885541;29;20461;-84
2023/05/20 07:57:39;;;;;;;21.60;20.60;;;16.20;99.90;;;;;;4878877;29;20859;-82
2023/05/20 08:00:25;;;;;;;21.40;20.40;;;16.20;99.90;;;;;;4883446;29;21470;-84
2023/05/20 08:03:16;;;;;;;21.47;20.47;;;16.30;99.90;;;;;;4881890;29;20500;-83
2023/05/20 08:09:02;;;;;;;21.67;20.57;;;16.40;54.50;;;;;;4867159;29;20517;-83
2023/05/20 08:12:05;;;;;;;21.33;20.43;;;16.40;90.30;;;;;;4885207;29;20472;-83
2023/05/20 08:14:54;;;;;;;21.63;20.63;;;16.50;28.30;;;;;;4866548;29;20462;-84
2023/05/20 08:17:37;;;;;;;21.53;20.53;;;16.50;33.70;;;;;;4883603;29;20477;-84
2023/05/20 08:20:26;;;;;;;21.50;20.53;;;16.50;1.00;;;;;;4884447;29;20478;-84
2023/05/20 08:23:16;;;;;;;21.60;20.60;;;16.50;1.00;;;;;;4887040;29;20454;-85
2023/05/20 08:29:10;;;;;;;21.40;20.40;;;16.40;1.00;;;;;;4883685;29;20472;-83
2023/05/20 08:31:52;;;;;;;20.40;19.50;;;16.40;1.00;;;;;;4876559;29;20475;-83
2023/05/20 08:34:39;;;;;;;21.70;20.70;;;16.30;1.00;;;;;;4883942;29;20458;-84
2023/05/20 08:37:17;;;;;;;21.17;20.27;;;16.40;1.00;;;;;;4885274;29;20501;-84
2023/05/20 08:40:12;;;;;;;21.30;20.40;;;16.40;1.00;;;;;;4883322;29;20582;-84
2023/05/20 08:43:06;;;;;;;20.80;19.90;;;16.50;1.00;;;;;;4882911;29;20470;-84
2023/05/20 08:45:51;;;;;;;20.43;19.53;;;16.60;1.00;;;;;;4882395;29;20462;-84
2023/05/20 08:48:41;;;;;;;22.10;20.73;;;16.70;1.00;;;;;;4883276;29;20485;-83
2023/05/20 08:51:49;;;;;;;20.90;20.00;;;16.80;1.00;;;;;;4885112;29;20490;-85
2023/05/20 08:54:32;;;;;;;20.73;19.80;;;16.90;1.00;;;;;;4880880;29;20466;-83
2023/05/20 08:57:13;;;;;;;20.97;19.90;;;16.90;1.00;;;;;;4878950;29;20494;-83
2023/05/20 09:00:12;;;;;;;21.10;20.20;;;17.00;1.00;;;;;;4882659;29;20466;-83
2023/05/20 09:03:23;;;;;;;21.37;20.47;;;17.10;1.00;;;;;;4882523;29;20453;-84
2023/05/20 09:09:25;;;;;;;21.40;20.40;;;17.10;1.00;;;;;;4884630;29;20465;-85
2023/05/20 09:12:20;;;;;;;20.60;19.80;;;17.10;1.00;;;;;;4867846;29;20530;-84
2023/05/20 09:18:06;;;;;;;21.40;20.43;;;17.10;1.00;;;;;;4884489;29;20694;-84
2023/05/20 09:20:45;;;;;;;21.60;20.50;;;17.20;1.00;;;;;;4884321;29;20981;-84
2023/05/20 09:23:44;;;;;;;21.07;20.27;;;17.20;1.00;;;;;;4882975;29;20454;-85
2023/05/20 09:29:42;;;;;;;20.60;19.77;;;17.40;1.00;;;;;;4883211;29;20467;-84
2023/05/20 09:36:05;;;;;;;20.53;19.70;;;17.40;1.00;;;;;;4884113;29;20578;-84
2023/05/20 09:39:04;;;;;;;21.53;20.53;;;17.50;1.00;;;;;;4881696;29;20501;-85
2023/05/20 09:41:43;;;;;;;21.00;20.00;;;17.60;1.00;;;;;;4882745;29;20498;-84
2023/05/20 09:44:30;;;;;;;21.17;20.17;;;17.60;1.00;;;;;;4882118;29;20809;-84
2023/05/20 09:47:33;;;;;;;21.00;20.20;;;17.60;1.00;;;;;;4851353;29;20482;-85
2023/05/20 09:50:11;;;;;;;21.03;20.13;;;17.70;1.00;;;;;;4868442;29;20936;-85
2023/05/20 09:53:03;;;;;;;22.13;21.13;;;17.70;1.00;;;;;;4881688;29;20451;-85
2023/05/20 09:55:50;;;;;;;22.80;21.60;;;17.80;1.00;;;;;;4885307;29;20470;-83
2023/05/20 09:58:26;;;;;;;21.57;20.57;;;17.90;1.00;;;;;;4891400;29;20529;-85
2023/05/20 10:01:10;;;;;;;21.63;20.70;;;18.00;1.00;;;;;;4881752;29;20453;-85
2023/05/20 10:04:08;;;;;;;21.77;20.70;;;18.00;1.00;;;;;;4882624;29;20460;-84
2023/05/20 10:10:31;;;;;;;21.10;20.10;;;18.30;1.00;;;;;;4888024;29;20558;-85
2023/05/20 10:13:22;;;;;;;21.47;20.57;;;18.30;1.00;;;;;;4884228;29;21277;-84
2023/05/20 10:16:22;;;;;;;22.00;20.90;;;18.30;1.00;;;;;;4886678;29;21194;-85
2023/05/20 10:19:16;;;;;;;21.63;20.73;;;18.30;1.00;;;;;;4885419;29;20542;-84
2023/05/20 10:22:19;;;;;;;21.53;20.63;;;18.30;1.00;;;;;;4884778;29;20535;-85
2023/05/20 10:32:06;;;;;;;21.00;20.10;;;18.40;1.00;;;;;;4884791;29;20463;-85
2023/05/20 10:35:00;;;;;;;21.10;20.30;;;18.60;1.00;;;;;;4883954;29;20471;-84
2023/05/20 10:37:50;;;;;;;20.80;19.90;;;18.60;1.00;;;;;;4885338;29;20491;-84
2023/05/20 10:40:39;;;;;;;20.73;19.90;;;18.60;1.00;;;;;;4885419;29;20842;-84
2023/05/20 10:43:32;;;;;;;21.17;20.17;;;18.50;1.00;;;;;;4883118;29;20553;-85
2023/05/20 10:52:37;;;;;;;20.77;19.97;;;18.90;1.00;;;;;;4886424;29;20457;-85
2023/05/20 10:55:44;;;;;;;20.50;19.60;;;18.90;1.00;;;;;;4887401;29;20447;-85
2023/05/20 10:58:33;;;;;;;20.77;19.90;;;18.90;1.00;;;;;;4887882;29;20495;-84
2023/05/20 11:01:23;;;;;;;21.00;20.10;;;19.00;1.00;;;;;;4885147;29;21329;-85
2023/05/20 11:04:03;;;;;;;21.70;20.70;;;19.20;99.90;;;;;;4885440;29;20459;-85
2023/05/20 11:07:01;;;;;;;20.10;19.20;;;19.20;99.90;;;;;;4880941;29;20456;-84
2023/05/20 11:09:52;;;;;;;21.33;20.37;;;19.30;99.90;;;;;;4885841;29;20534;-85
2023/05/20 11:13:01;;;;;;;20.60;19.70;;;19.30;99.90;;;;;;4883175;29;20561;-85
2023/05/20 11:15:57;;;;;;;22.03;20.97;;;19.30;99.90;;;;;;4884751;29;20466;-85
2023/05/20 11:22:13;;;;;;;20.93;20.00;;;19.30;99.90;;;;;;4886049;29;20467;-86
2023/05/20 11:25:27;;;;;;;21.30;20.40;;;19.20;99.90;;;;;;4882006;29;20459;-86
2023/05/20 11:28:25;;;;;;;20.00;19.20;;;19.10;99.90;;;;;;4883338;29;20489;-84
2023/05/20 11:31:53;;;;;;;20.50;19.60;;;19.10;99.90;;;;;;4882382;29;20991;-85
2023/05/20 11:35:03;;;;;;;21.00;19.90;;;19.20;99.90;;;;;;4869304;29;20542;-84
2023/05/20 11:37:40;;;;;;;20.00;19.20;;;19.30;99.90;;;;;;4881887;29;20499;-84
2023/05/20 11:43:40;;;;;;;21.37;20.30;;;19.40;99.90;;;;;;4898697;29;20459;-86
2023/05/20 11:46:30;;;;;;;20.70;19.90;;;19.40;99.90;;;;;;4883831;29;20463;-85
2023/05/20 11:49:22;;;;;;;20.17;19.30;;;19.30;99.90;;;;;;4882790;29;20929;-85
2023/05/20 11:51:57;;;;;;;20.57;19.27;;;19.30;99.90;;;;;;4867043;29;20466;-84
2023/05/20 11:57:41;;;;;;;20.77;19.77;;;19.20;99.90;;;;;;4867322;29;20492;-85
2023/05/20 12:00:39;;;;;;;;;;;;;;;;;;;;;
2023/05/20 12:03:43;;;;;;;20.20;19.20;;;19.30;99.90;;;;;;4884145;29;20470;-85
2023/05/20 12:10:20;;;;;;;20.40;19.50;;;19.50;99.90;;;;;;4867535;29;20482;-85
2023/05/20 12:13:18;;;;;;;21.13;20.17;;;19.70;99.90;;;;;;4884015;29;20447;-86
2023/05/20 12:22:13;;;;;;;;;;;;;;;;;;;;;
2023/05/20 12:25:31;;;;;;;20.70;19.90;;;19.90;99.90;;;;;;4885838;29;20456;-86
2023/05/20 12:28:33;;;;;;;20.53;19.73;;;19.90;99.90;;;;;;4896005;29;20858;-84
2023/05/20 12:31:22;;;;;;;20.70;19.70;;;19.80;99.90;;;;;;4868322;29;20468;-87
2023/05/20 12:34:36;;;;;;;20.53;19.63;;;19.90;99.90;;;;;;4883790;29;20466;-85
2023/05/20 12:37:46;;;;;;;21.10;20.10;;;19.90;99.90;;;;;;4882472;29;20988;-85
2023/05/20 12:40:47;;;;;;;20.80;19.63;;;20.00;99.90;;;;;;4881803;29;20456;-85
2023/05/20 12:43:46;;;;;;;21.67;20.50;;;20.00;99.90;;;;;;4882232;29;20458;-85
2023/05/20 12:49:25;;;;;;;20.20;19.30;;;19.90;99.90;;;;;;4874219;29;21035;-85
2023/05/20 12:55:24;;;;;;;19.57;18.70;;;19.90;99.90;;;;;;4884364;29;20454;-86
2023/05/20 12:58:41;;;;;;;20.27;19.00;;;20.00;99.90;;;;;;4880622;29;20550;-86
2023/05/20 13:01:36;;;;;;;20.40;19.63;;;20.00;99.90;;;;;;4882564;29;20467;-86
2023/05/20 13:04:33;;;;;;;19.27;18.57;;;20.00;99.90;;;;;;4880262;29;20462;-86
2023/05/20 13:07:54;;;;;;;19.50;18.80;;;20.00;99.90;;;;;;4885950;29;20621;-85
2023/05/20 13:10:51;;;;;;;19.20;18.50;;;20.00;99.90;;;;;;4881913;29;20471;-84
2023/05/20 13:13:59;;;;;;;19.90;19.17;;;20.00;99.90;;;;;;4861180;29;20466;-85
2023/05/20 13:16:45;;;;;;;20.07;19.27;;;20.10;99.90;;;;;;4881772;29;20467;-86
2023/05/20 13:19:53;;;;;;;19.80;18.90;;;20.10;99.90;;;;;;4881092;29;20491;-86
2023/05/20 13:22:49;;;;;;;20.13;19.23;;;20.20;99.90;;;;;;4881136;29;20486;-85
2023/05/20 13:25:32;;;;;;;21.27;19.57;;;20.20;99.90;;;;;;4882773;29;20547;-85
2023/05/20 13:28:21;;;;;;;19.17;18.37;;;20.20;99.90;;;;;;4883628;29;20555;-85
2023/05/20 13:34:44;;;;;;;18.80;18.10;;;20.10;99.90;;;;;;4883609;29;20470;-85
2023/05/20 13:37:49;;;;;;;18.60;17.90;;;20.20;99.90;;;;;;4876471;29;20479;-85
2023/05/20 13:40:52;;;;;;;19.13;18.37;;;20.20;99.90;;;;;;4880006;29;20970;-83
2023/05/20 13:44:01;;;;;;;20.00;19.07;;;20.30;99.90;;;;;;4866259;29;21101;-85
2023/05/20 13:47:18;;;;;;;19.70;18.70;;;20.30;99.90;;;;;;4874443;29;20482;-85
2023/05/20 13:50:13;;;;;;;19.13;18.40;;;20.30;99.90;;;;;;4883450;29;20470;-85
2023/05/20 13:53:06;;;;;;;18.90;18.20;;;20.30;99.90;;;;;;4881526;29;20471;-85
2023/05/20 14:06:53;;;;;;;18.90;18.10;;;20.30;99.90;;;;;;4837470;29;20918;-84
2023/05/20 14:09:51;;;;;;;18.60;17.90;;;20.30;99.90;;;;;;4854258;29;20723;-85
2023/05/20 14:12:48;;;;;;;19.50;18.80;;;20.30;99.90;;;;;;4879243;29;20869;-85
2023/05/20 14:15:49;;;;;;;18.90;18.20;;;20.30;99.90;;;;;;4865812;29;20477;-85
2023/05/20 14:21:45;;;;;;;19.50;18.43;;;20.30;99.90;;;;;;4883830;29;20452;-86
2023/05/20 14:24:34;;;;;;;19.80;19.00;;;20.40;99.90;;;;;;4880443;29;20462;-85
2023/05/20 14:27:34;;;;;;;18.80;18.17;;;20.50;99.90;;;;;;4882086;29;20569;-85
2023/05/20 14:33:27;;;;;;;19.50;18.70;;;20.60;99.90;;;;;;4871621;29;20478;-85
2023/05/20 14:36:30;;;;;;;18.47;17.77;;;20.60;99.90;;;;;;4881975;29;20471;-85
2023/05/20 14:39:10;;;;;;;18.40;17.80;;;20.60;99.90;;;;;;4882142;29;21051;-85
2023/05/20 14:41:54;;;;;;;18.60;17.80;;;20.60;99.90;;;;;;4882706;29;20443;-84
2023/05/20 14:44:40;;;;;;;19.30;18.40;;;20.60;99.90;;;;;;4882344;29;20469;-85
2023/05/20 14:47:34;;;;;;;18.80;18.10;;;20.60;99.90;;;;;;4863867;29;20479;-85
2023/05/20 14:50:28;;;;;;;18.00;17.30;;;20.50;99.90;;;;;;4881049;29;20992;-84
2023/05/20 14:56:29;;;;;;;17.50;17.00;;;20.50;99.90;;;;;;4886071;29;20459;-86
2023/05/20 15:02:24;;;;;;;18.20;17.40;;;20.50;99.90;;;;;;4890191;29;20454;-85
2023/05/20 15:08:25;;;;;;;18.37;17.57;;;20.40;99.90;;;;;;4887885;29;21031;-85
2023/05/20 15:14:41;;;;;;;18.20;17.50;;;20.40;99.90;;;;;;4884097;29;20482;-85
2023/05/20 15:17:44;;;;;;;17.50;16.90;;;20.40;99.90;;;;;;4868518;29;20474;-85
2023/05/20 15:20:34;;;;;;;16.60;15.90;;;20.40;99.90;;;;;;4884912;29;20502;-85
2023/05/20 15:23:37;;;;;;;16.90;16.20;;;20.40;99.90;;;;;;4883925;29;21016;-85
2023/05/20 15:26:18;;;;;;;17.17;16.63;;;20.40;99.90;;;;;;4884698;29;20785;-86
2023/05/20 15:29:25;;;;;;;17.80;17.00;;;20.40;99.90;;;;;;4873426;29;20467;-85
2023/05/20 15:32:14;;;;;;;18.10;17.30;;;20.50;99.90;;;;;;4881112;29;20557;-85
2023/05/20 15:38:37;;;;;;;17.20;16.63;;;20.50;99.90;;;;;;4884700;29;20953;-85
2023/05/20 15:41:26;;;;;;;17.30;16.70;;;20.50;99.90;;;;;;4882271;29;20549;-84
2023/05/20 15:44:02;;;;;;;16.80;16.30;;;20.50;99.90;;;;;;4866572;29;20459;-84
2023/05/20 15:47:09;;;;;;;17.60;17.00;;;20.50;99.90;;;;;;4879623;29;20525;-85
2023/05/20 15:53:27;;;;;;;17.60;17.00;;;20.50;99.90;;;;;;4884515;29;20471;-84
2023/05/20 15:56:26;;;;;;;17.60;16.90;;;20.60;99.90;;;;;;4882485;29;20468;-85
2023/05/20 15:59:21;;;;;;;17.83;16.97;;;20.60;99.90;;;;;;4884451;29;20547;-85
2023/05/20 16:02:32;;;;;;;17.10;16.47;;;20.60;99.90;;;;;;4883787;29;20463;-85
2023/05/20 16:05:17;;;;;;;17.43;16.70;;;20.60;99.90;;;;;;4873923;29;20472;-85
2023/05/20 16:08:05;;;;;;;17.17;16.57;;;20.70;99.90;;;;;;4883726;29;21091;-86
2023/05/20 16:10:58;;;;;;;17.27;16.67;;;20.60;99.90;;;;;;4882468;29;20447;-86